createdAt,value
2018-11-07T00:01:34.858Z,8.80
2018-11-07T00:04:03.236Z,8.80
2018-11-07T00:06:31.576Z,8.80
2018-11-07T00:08:59.866Z,8.70
2018-11-07T00:11:28.226Z,8.70
2018-11-07T00:13:56.620Z,8.70
2018-11-07T00:16:24.835Z,8.70
2018-11-07T00:18:53.201Z,8.70
2018-11-07T00:21:21.462Z,8.70
2018-11-07T00:23:49.742Z,8.60
2018-11-07T00:26:18.070Z,8.60
2018-11-07T00:28:46.462Z,8.50
2018-11-07T00:31:14.722Z,8.40
2018-11-07T00:33:43.002Z,8.30
2018-11-07T00:36:11.378Z,8.30
2018-11-07T00:38:39.639Z,8.20
2018-11-07T00:41:07.930Z,8.20
2018-11-07T00:43:36.210Z,8.20
2018-11-07T00:46:04.775Z,8.20
2018-11-07T00:48:33.043Z,8.20
2018-11-07T00:51:01.320Z,8.20
2018-11-07T00:53:29.618Z,8.20
2018-11-07T00:55:57.992Z,8.20
2018-11-07T00:58:26.308Z,8.30
2018-11-07T01:00:54.669Z,8.30
2018-11-07T01:03:22.979Z,8.30
2018-11-07T01:05:51.312Z,8.30
2018-11-07T01:08:19.599Z,8.20
2018-11-07T01:10:47.862Z,8.10
2018-11-07T01:13:16.168Z,8.00
2018-11-07T01:15:44.565Z,7.90
2018-11-07T01:18:12.926Z,7.80
2018-11-07T01:20:41.283Z,7.70
2018-11-07T01:23:09.685Z,7.70
2018-11-07T01:25:37.992Z,7.60
2018-11-07T01:28:06.434Z,7.60
2018-11-07T01:30:34.798Z,7.50
2018-11-07T01:33:03.265Z,7.40
2018-11-07T01:35:31.584Z,7.40
2018-11-07T01:38:00.045Z,7.30
2018-11-07T01:40:28.355Z,7.30
2018-11-07T01:42:56.661Z,7.30
2018-11-07T01:45:25.187Z,7.20
2018-11-07T01:47:53.600Z,7.20
2018-11-07T01:50:24.912Z,7.10
2018-11-07T01:52:53.183Z,7.10
2018-11-07T01:55:21.526Z,7.10
2018-11-07T01:57:49.950Z,7.10
2018-11-07T02:00:18.286Z,7.00
2018-11-07T02:02:46.609Z,7.00
2018-11-07T02:05:15.065Z,7.00
2018-11-07T02:07:43.705Z,7.00
2018-11-07T02:10:12.181Z,6.90
2018-11-07T02:12:41.273Z,6.90
2018-11-07T02:15:10.366Z,6.90
2018-11-07T02:17:38.684Z,6.90
2018-11-07T02:20:08.055Z,6.80
2018-11-07T02:22:36.411Z,6.80
2018-11-07T02:25:05.346Z,6.80
2018-11-07T02:27:33.705Z,6.70
2018-11-07T02:30:02.075Z,6.80
2018-11-07T02:32:30.429Z,6.80
2018-11-07T02:34:58.747Z,6.90
2018-11-07T02:37:27.094Z,6.90
2018-11-07T02:39:55.507Z,6.90
2018-11-07T02:42:23.882Z,6.90
2018-11-07T02:44:52.345Z,6.90
2018-11-07T02:47:20.757Z,6.90
2018-11-07T02:49:56.942Z,6.80
2018-11-07T02:52:25.367Z,6.80
2018-11-07T02:54:53.653Z,6.80
2018-11-07T02:57:22.110Z,6.80
2018-11-07T02:59:50.408Z,6.90
2018-11-07T03:02:18.791Z,6.90
2018-11-07T03:04:47.076Z,6.90
2018-11-07T03:07:15.462Z,6.90
2018-11-07T03:09:43.763Z,6.90
2018-11-07T03:12:12.072Z,6.90
2018-11-07T03:14:40.334Z,6.80
2018-11-07T03:17:08.684Z,6.80
2018-11-07T03:19:36.960Z,6.70
2018-11-07T03:22:05.622Z,6.60
2018-11-07T03:24:33.923Z,6.50
2018-11-07T03:27:02.217Z,6.50
2018-11-07T03:29:30.573Z,6.40
2018-11-07T03:31:59.038Z,6.40
2018-11-07T03:34:27.474Z,6.30
2018-11-07T03:36:55.748Z,6.30
2018-11-07T03:39:24.035Z,6.30
2018-11-07T03:41:52.388Z,6.30
2018-11-07T03:44:20.680Z,6.30
2018-11-07T03:46:49.110Z,6.30
2018-11-07T03:49:17.492Z,6.30
2018-11-07T03:51:45.773Z,6.30
2018-11-07T03:54:14.218Z,6.30
2018-11-07T03:56:42.579Z,6.20
2018-11-07T03:59:10.851Z,6.20
2018-11-07T04:01:39.189Z,6.10
2018-11-07T04:04:07.464Z,6.10
2018-11-07T04:06:35.845Z,6.10
2018-11-07T04:09:06.309Z,6.10
2018-11-07T04:11:34.686Z,6.00
2018-11-07T04:14:02.993Z,6.00
2018-11-07T04:16:31.314Z,6.00
2018-11-07T04:18:59.633Z,6.00
2018-11-07T04:21:27.957Z,5.90
2018-11-07T04:24:03.793Z,5.90
2018-11-07T04:26:33.647Z,5.90
2018-11-07T04:29:02.007Z,5.90
2018-11-07T04:31:30.835Z,5.90
2018-11-07T04:33:59.120Z,5.80
2018-11-07T04:36:27.566Z,5.80
2018-11-07T04:38:56.316Z,5.80
2018-11-07T04:41:24.873Z,5.80
2018-11-07T04:43:53.186Z,5.70
2018-11-07T04:46:21.598Z,5.70
2018-11-07T04:48:49.994Z,5.80
2018-11-07T04:51:18.290Z,5.80
2018-11-07T04:53:46.608Z,5.80
2018-11-07T04:56:14.886Z,5.80
2018-11-07T04:58:43.192Z,5.70
2018-11-07T05:01:11.482Z,5.70
2018-11-07T05:03:39.830Z,5.70
2018-11-07T05:06:08.276Z,5.70
2018-11-07T05:08:36.615Z,5.70
2018-11-07T05:11:04.949Z,5.70
2018-11-07T05:13:33.266Z,5.80
2018-11-07T05:16:01.605Z,5.80
2018-11-07T05:18:29.943Z,5.80
2018-11-07T05:20:58.246Z,5.80
2018-11-07T05:23:26.575Z,5.80
2018-11-07T05:25:54.853Z,5.80
2018-11-07T05:28:23.154Z,5.70
2018-11-07T05:30:51.506Z,5.70
2018-11-07T05:33:19.831Z,5.70
2018-11-07T05:35:48.120Z,5.60
2018-11-07T05:38:16.461Z,5.60
2018-11-07T05:40:44.787Z,5.50
2018-11-07T05:43:13.170Z,5.50
2018-11-07T05:45:41.482Z,5.40
2018-11-07T05:48:09.794Z,5.40
2018-11-07T05:50:38.118Z,5.30
2018-11-07T05:53:06.642Z,5.40
2018-11-07T05:55:34.919Z,5.40
2018-11-07T05:58:03.213Z,5.40
2018-11-07T06:00:31.594Z,5.40
2018-11-07T06:02:59.983Z,5.50
2018-11-07T06:05:28.355Z,5.50
2018-11-07T06:07:56.671Z,5.50
2018-11-07T06:10:24.986Z,5.50
2018-11-07T06:12:53.353Z,5.50
2018-11-07T06:15:21.758Z,5.50
2018-11-07T06:17:50.097Z,5.40
2018-11-07T06:20:18.545Z,5.40
2018-11-07T06:22:46.972Z,5.40
2018-11-07T06:25:15.366Z,5.40
2018-11-07T06:27:43.788Z,5.50
2018-11-07T06:30:13.054Z,5.50
2018-11-07T06:32:42.141Z,5.50
2018-11-07T06:35:11.138Z,5.50
2018-11-07T06:37:39.622Z,5.50
2018-11-07T06:40:09.726Z,5.50
2018-11-07T06:42:38.126Z,5.50
2018-11-07T06:45:07.070Z,5.50
2018-11-07T06:47:35.355Z,5.50
2018-11-07T06:50:03.718Z,5.40
2018-11-07T06:52:32.119Z,5.40
2018-11-07T06:55:00.441Z,5.40
2018-11-07T06:57:28.721Z,5.40
2018-11-07T06:59:57.075Z,5.40
2018-11-07T07:02:25.661Z,5.50
2018-11-07T07:04:54.041Z,5.50
2018-11-07T07:07:22.346Z,5.50
2018-11-07T07:09:50.647Z,5.50
2018-11-07T07:12:18.942Z,5.50
2018-11-07T07:14:47.247Z,5.50
2018-11-07T07:17:15.634Z,5.50
2018-11-07T07:19:44.112Z,5.50
2018-11-07T07:22:12.392Z,5.50
2018-11-07T07:24:40.681Z,5.50
2018-11-07T07:27:09.050Z,5.50
2018-11-07T07:29:37.362Z,5.40
2018-11-07T07:32:05.662Z,5.40
2018-11-07T07:34:33.988Z,5.40
2018-11-07T07:37:02.304Z,5.40
2018-11-07T07:39:30.597Z,5.40
2018-11-07T07:41:58.887Z,5.40
2018-11-07T07:44:27.164Z,5.60
2018-11-07T07:46:55.571Z,5.70
2018-11-07T07:49:23.939Z,5.70
2018-11-07T07:51:52.211Z,5.90
2018-11-07T07:54:20.610Z,6.00
2018-11-07T07:56:48.895Z,6.10
2018-11-07T07:59:17.190Z,6.20
2018-11-07T08:01:45.649Z,6.30
2018-11-07T08:04:14.129Z,6.30
2018-11-07T08:06:42.559Z,6.40
2018-11-07T08:09:12.732Z,6.50
2018-11-07T08:11:41.149Z,6.60
2018-11-07T08:14:10.115Z,6.60
2018-11-07T08:16:38.488Z,6.70
2018-11-07T08:19:07.481Z,6.80
2018-11-07T08:21:35.774Z,6.90
2018-11-07T08:24:04.091Z,7.00
2018-11-07T08:26:32.520Z,7.10
2018-11-07T08:29:00.816Z,7.10
2018-11-07T08:31:29.174Z,7.10
2018-11-07T08:33:57.662Z,7.20
2018-11-07T08:36:26.056Z,7.20
2018-11-07T08:38:54.381Z,7.40
2018-11-07T08:41:22.691Z,7.50
2018-11-07T08:43:51.057Z,7.50
2018-11-07T08:46:19.678Z,7.60
2018-11-07T08:48:48.246Z,7.70
2018-11-07T08:51:16.579Z,7.90
2018-11-07T08:53:44.857Z,8.00
2018-11-07T08:56:13.177Z,8.20
2018-11-07T08:58:41.694Z,8.30
2018-11-07T09:01:10.112Z,8.40
2018-11-07T09:03:38.422Z,8.50
2018-11-07T09:06:06.718Z,8.50
2018-11-07T09:08:34.995Z,8.50
2018-11-07T09:11:03.322Z,8.60
2018-11-07T09:13:31.650Z,8.70
2018-11-07T09:16:00.112Z,8.80
2018-11-07T09:18:28.458Z,8.70
2018-11-07T09:20:56.766Z,8.60
2018-11-07T09:23:25.150Z,8.60
2018-11-07T09:25:53.459Z,8.60
2018-11-07T09:28:21.857Z,8.60
2018-11-07T09:30:50.202Z,8.60
2018-11-07T09:33:18.511Z,8.60
2018-11-07T09:35:46.845Z,8.70
2018-11-07T09:38:15.169Z,8.70
2018-11-07T09:40:43.469Z,8.70
2018-11-07T09:43:11.793Z,8.80
2018-11-07T09:45:40.160Z,8.80
2018-11-07T09:48:08.538Z,8.90
2018-11-07T09:50:36.766Z,8.90
2018-11-07T09:53:05.198Z,8.90
2018-11-07T09:55:33.498Z,9.00
2018-11-07T09:58:01.811Z,9.00
2018-11-07T10:00:30.129Z,9.10
2018-11-07T10:02:58.447Z,9.20
2018-11-07T10:05:26.812Z,9.20
2018-11-07T10:07:55.168Z,9.30
2018-11-07T10:10:23.497Z,9.30
2018-11-07T10:12:51.834Z,9.40
2018-11-07T10:15:20.619Z,9.50
2018-11-07T10:17:48.983Z,9.60
2018-11-07T10:20:18.793Z,9.60
2018-11-07T10:22:47.736Z,9.70
2018-11-07T10:25:16.285Z,9.70
2018-11-07T10:27:45.117Z,9.80
2018-11-07T10:30:15.950Z,9.90
2018-11-07T10:32:45.135Z,9.90
2018-11-07T10:35:13.411Z,10.00
2018-11-07T10:37:41.790Z,10.10
2018-11-07T10:40:13.859Z,10.10
2018-11-07T10:42:42.358Z,10.20
2018-11-07T10:45:11.435Z,10.20
2018-11-07T10:47:39.931Z,10.20
2018-11-07T10:50:09.829Z,10.20
2018-11-07T10:52:38.738Z,10.30
2018-11-07T10:55:07.496Z,10.30
2018-11-07T10:57:36.041Z,10.30
2018-11-07T11:00:05.373Z,10.30
2018-11-07T11:02:39.082Z,10.40
2018-11-07T11:05:07.462Z,10.40
2018-11-07T11:07:35.755Z,10.40
2018-11-07T11:10:04.515Z,10.40
2018-11-07T11:12:32.946Z,10.40
2018-11-07T11:15:01.286Z,10.50
2018-11-07T11:17:29.655Z,10.60
2018-11-07T11:19:57.935Z,10.60
2018-11-07T11:22:26.264Z,10.60
2018-11-07T11:24:54.546Z,10.60
2018-11-07T11:27:22.891Z,10.60
2018-11-07T11:29:51.150Z,10.70
2018-11-07T11:32:19.502Z,10.70
2018-11-07T11:34:47.842Z,10.80
2018-11-07T11:37:16.088Z,10.90
2018-11-07T11:39:44.363Z,11.00
2018-11-07T11:42:12.767Z,11.10
2018-11-07T11:44:41.069Z,11.20
2018-11-07T11:47:09.375Z,11.30
2018-11-07T11:49:37.700Z,11.40
2018-11-07T11:52:06.089Z,11.50
2018-11-07T11:54:34.374Z,11.60
2018-11-07T11:57:02.653Z,11.60
2018-11-07T11:59:31.163Z,11.70
2018-11-07T12:01:59.408Z,11.80
2018-11-07T12:04:27.780Z,11.80
2018-11-07T12:06:56.075Z,11.80
2018-11-07T12:09:24.394Z,11.80
2018-11-07T12:11:52.714Z,11.90
2018-11-07T12:14:20.997Z,11.80
2018-11-07T12:16:49.306Z,11.90
2018-11-07T12:19:17.748Z,11.90
2018-11-07T12:21:46.131Z,11.90
2018-11-07T12:24:14.443Z,11.90
2018-11-07T12:26:42.732Z,11.90
2018-11-07T12:29:11.072Z,11.90
2018-11-07T12:31:39.373Z,11.90
2018-11-07T12:34:07.712Z,11.90
2018-11-07T12:36:36.112Z,11.90
2018-11-07T12:39:06.150Z,11.90
2018-11-07T12:41:34.482Z,12.10
2018-11-07T12:44:02.898Z,12.20
2018-11-07T12:46:31.257Z,12.20
2018-11-07T12:48:59.599Z,12.30
2018-11-07T12:51:27.894Z,12.40
2018-11-07T12:53:56.294Z,12.50
2018-11-07T12:56:24.623Z,12.60
2018-11-07T12:58:53.182Z,12.60
2018-11-07T13:01:21.509Z,12.80
2018-11-07T13:03:49.826Z,12.80
2018-11-07T13:06:18.107Z,12.90
2018-11-07T13:08:46.413Z,12.80
2018-11-07T13:11:14.768Z,12.90
2018-11-07T13:13:43.090Z,13.00
2018-11-07T13:16:11.444Z,12.90
2018-11-07T13:18:39.963Z,12.90
2018-11-07T13:21:08.375Z,12.80
2018-11-07T13:23:36.671Z,12.90
2018-11-07T13:26:05.274Z,13.00
2018-11-07T13:28:33.678Z,13.00
2018-11-07T13:31:01.931Z,13.00
2018-11-07T13:33:30.240Z,13.00
2018-11-07T13:35:58.759Z,13.00
2018-11-07T13:38:27.468Z,13.00
2018-11-07T13:40:55.367Z,13.00
2018-11-07T13:43:23.693Z,12.90
2018-11-07T13:45:52.061Z,12.90
2018-11-07T13:48:20.310Z,12.80
2018-11-07T13:50:48.730Z,12.70
2018-11-07T13:53:17.098Z,12.60
2018-11-07T13:55:45.335Z,12.50
2018-11-07T13:58:13.635Z,12.50
2018-11-07T14:00:41.950Z,12.50
2018-11-07T14:03:10.292Z,12.60
2018-11-07T14:05:38.767Z,12.60
2018-11-07T14:08:06.998Z,12.60
2018-11-07T14:10:35.370Z,12.60
2018-11-07T14:13:03.691Z,12.60
2018-11-07T14:15:32.127Z,12.70
2018-11-07T14:18:00.427Z,12.80
2018-11-07T14:20:28.864Z,12.80
2018-11-07T14:22:57.165Z,12.70
2018-11-07T14:25:25.544Z,12.60
2018-11-07T14:27:53.920Z,12.60
2018-11-07T14:30:22.232Z,12.60
2018-11-07T14:32:55.969Z,12.50
2018-11-07T14:35:24.409Z,12.40
2018-11-07T14:37:53.415Z,12.40
2018-11-07T14:40:21.726Z,12.40
2018-11-07T14:42:50.039Z,12.40
2018-11-07T14:45:18.318Z,12.30
2018-11-07T14:47:46.626Z,12.30
2018-11-07T14:50:15.092Z,12.20
2018-11-07T14:52:43.391Z,12.00
2018-11-07T14:55:12.360Z,11.90
2018-11-07T14:57:40.735Z,11.80
2018-11-07T15:00:10.343Z,11.70
2018-11-07T15:02:39.296Z,11.60
2018-11-07T15:05:09.155Z,11.50
2018-11-07T15:07:37.569Z,11.40
2018-11-07T15:10:07.367Z,11.30
2018-11-07T15:12:35.827Z,11.20
2018-11-07T15:15:04.726Z,11.10
2018-11-07T15:17:33.035Z,11.10
2018-11-07T15:20:01.309Z,11.00
2018-11-07T15:22:29.606Z,10.90
2018-11-07T15:24:57.888Z,10.90
2018-11-07T15:27:26.203Z,10.80
2018-11-07T15:29:54.473Z,10.80
2018-11-07T15:32:22.767Z,10.80
2018-11-07T15:34:51.150Z,10.70
2018-11-07T15:37:19.447Z,10.70
2018-11-07T15:39:47.742Z,10.60
2018-11-07T15:42:16.029Z,10.60
2018-11-07T15:44:44.307Z,10.80
2018-11-07T15:47:12.612Z,10.70
2018-11-07T15:49:41.682Z,10.70
2018-11-07T15:52:10.451Z,10.60
2018-11-07T15:54:38.798Z,10.60
2018-11-07T15:57:07.124Z,10.60
2018-11-07T15:59:35.430Z,10.60
2018-11-07T16:02:03.770Z,10.50
2018-11-07T16:04:32.066Z,10.50
2018-11-07T16:07:00.423Z,10.60
2018-11-07T16:09:28.775Z,10.60
2018-11-07T16:11:57.058Z,10.60
2018-11-07T16:14:25.421Z,10.50
2018-11-07T16:16:53.811Z,10.40
2018-11-07T16:19:22.153Z,10.30
2018-11-07T16:21:50.478Z,10.30
2018-11-07T16:24:18.948Z,10.30
2018-11-07T16:26:47.237Z,10.20
2018-11-07T16:29:15.562Z,10.10
2018-11-07T16:31:43.940Z,10.00
2018-11-07T16:34:12.366Z,9.90
2018-11-07T16:36:40.666Z,9.80
2018-11-07T16:39:10.274Z,9.70
2018-11-07T16:41:38.775Z,9.60
2018-11-07T16:44:07.032Z,9.50
2018-11-07T16:46:35.504Z,9.40
2018-11-07T16:49:03.821Z,9.40
2018-11-07T16:51:32.130Z,9.30
2018-11-07T16:54:00.443Z,9.30
2018-11-07T16:56:28.782Z,9.20
2018-11-07T16:58:57.138Z,9.10
2018-11-07T17:01:25.411Z,9.10
2018-11-07T17:03:53.742Z,9.00
2018-11-07T17:06:22.147Z,9.00
2018-11-07T17:08:50.433Z,9.00
2018-11-07T17:11:18.728Z,9.00
2018-11-07T17:13:47.028Z,9.00
2018-11-07T17:16:15.336Z,9.10
2018-11-07T17:18:43.629Z,9.10
2018-11-07T17:21:11.902Z,9.20
2018-11-07T17:23:40.186Z,9.30
2018-11-07T17:26:08.554Z,9.30
2018-11-07T17:28:36.906Z,9.40
2018-11-07T17:31:05.562Z,9.30
2018-11-07T17:33:33.847Z,9.40
2018-11-07T17:36:02.220Z,9.40
2018-11-07T17:38:30.593Z,9.40
2018-11-07T17:40:58.978Z,9.40
2018-11-07T17:43:27.413Z,9.40
2018-11-07T17:45:55.986Z,9.50
2018-11-07T17:48:24.389Z,9.50
2018-11-07T17:50:52.783Z,9.50
2018-11-07T17:53:21.154Z,9.50
2018-11-07T17:55:50.541Z,9.60
2018-11-07T17:58:19.755Z,9.60
2018-11-07T18:00:49.164Z,9.70
2018-11-07T18:03:18.231Z,9.70
2018-11-07T18:05:46.566Z,9.70
2018-11-07T18:08:14.940Z,9.70
2018-11-07T18:10:43.864Z,9.80
2018-11-07T18:13:12.479Z,9.80
2018-11-07T18:15:40.954Z,9.80
2018-11-07T18:18:09.351Z,9.80
2018-11-07T18:20:37.822Z,9.80
2018-11-07T18:23:06.254Z,9.70
2018-11-07T18:25:34.550Z,9.80
2018-11-07T18:28:02.937Z,9.70
2018-11-07T18:30:31.339Z,9.80
2018-11-07T18:32:59.670Z,9.80
2018-11-07T18:35:28.019Z,9.80
2018-11-07T18:37:56.377Z,9.90
2018-11-07T18:40:24.781Z,9.90
2018-11-07T18:42:53.152Z,10.00
2018-11-07T18:45:21.513Z,10.00
2018-11-07T18:47:49.931Z,10.10
2018-11-07T18:50:19.662Z,10.10
2018-11-07T18:52:47.849Z,10.10
2018-11-07T18:55:17.003Z,10.20
2018-11-07T18:57:45.981Z,10.10
2018-11-07T19:00:16.122Z,10.10
2018-11-07T19:02:45.001Z,10.00
2018-11-07T19:05:13.373Z,10.00
2018-11-07T19:07:41.986Z,9.90
2018-11-07T19:10:13.029Z,9.90
2018-11-07T19:12:41.445Z,9.90
2018-11-07T19:15:11.606Z,9.90
2018-11-07T19:17:40.803Z,9.90
2018-11-07T19:20:10.225Z,9.90
2018-11-07T19:22:38.598Z,9.90
2018-11-07T19:25:09.132Z,10.00
2018-11-07T19:27:38.216Z,10.00
2018-11-07T19:30:08.973Z,10.10
2018-11-07T19:32:37.544Z,10.00
2018-11-07T19:35:07.214Z,10.00
2018-11-07T19:37:35.511Z,10.00
2018-11-07T19:40:04.185Z,10.00
2018-11-07T19:42:32.502Z,10.10
2018-11-07T19:45:01.003Z,10.10
2018-11-07T19:47:29.451Z,10.10
2018-11-07T19:49:57.841Z,10.10
2018-11-07T19:52:26.240Z,10.20
2018-11-07T19:54:54.602Z,10.20
2018-11-07T19:57:22.830Z,10.20
2018-11-07T19:59:51.200Z,10.20
2018-11-07T20:02:19.470Z,10.10
2018-11-07T20:04:47.904Z,10.10
2018-11-07T20:07:16.283Z,10.20
2018-11-07T20:09:44.711Z,10.10
2018-11-07T20:12:13.457Z,10.10
2018-11-07T20:14:41.834Z,10.10
2018-11-07T20:17:10.157Z,10.10
2018-11-07T20:19:38.489Z,10.00
2018-11-07T20:22:06.782Z,10.00
2018-11-07T20:24:35.074Z,10.00
2018-11-07T20:27:03.423Z,10.00
2018-11-07T20:29:31.710Z,10.10
2018-11-07T20:32:00.010Z,10.00
2018-11-07T20:34:28.286Z,10.10
2018-11-07T20:36:56.710Z,10.00
2018-11-07T20:39:24.987Z,10.00
2018-11-07T20:41:53.533Z,10.00
2018-11-07T20:44:21.913Z,10.00
2018-11-07T20:46:50.522Z,10.00
2018-11-07T20:49:19.031Z,10.00
2018-11-07T20:51:47.543Z,10.00
2018-11-07T20:54:15.914Z,10.00
2018-11-07T20:56:45.246Z,10.10
2018-11-07T20:59:13.583Z,10.20
2018-11-07T21:01:41.918Z,10.20
2018-11-07T21:04:10.265Z,10.10
2018-11-07T21:06:38.666Z,10.20
2018-11-07T21:09:09.213Z,10.20
2018-11-07T21:11:37.567Z,10.20
2018-11-07T21:14:06.128Z,10.20
2018-11-07T21:16:34.526Z,10.20
2018-11-07T21:19:02.825Z,10.20
2018-11-07T21:21:31.302Z,10.20
2018-11-07T21:23:59.598Z,10.20
2018-11-07T21:26:28.200Z,10.10
2018-11-07T21:28:56.506Z,10.10
2018-11-07T21:31:25.316Z,10.10
2018-11-07T21:33:53.589Z,10.10
2018-11-07T21:36:21.904Z,10.00
2018-11-07T21:38:50.500Z,10.00
2018-11-07T21:41:19.269Z,10.00
2018-11-07T21:43:47.769Z,10.00
2018-11-07T21:46:17.674Z,10.00
2018-11-07T21:48:46.589Z,10.00
2018-11-07T21:51:15.314Z,10.00
2018-11-07T21:53:43.793Z,10.00
2018-11-07T21:56:12.211Z,10.10
2018-11-07T21:58:40.750Z,10.00
2018-11-07T22:01:09.247Z,10.00
2018-11-07T22:03:38.074Z,10.10
2018-11-07T22:06:06.590Z,10.10
2018-11-07T22:08:34.993Z,10.00
2018-11-07T22:11:03.285Z,10.00
2018-11-07T22:13:32.059Z,10.00
2018-11-07T22:16:00.975Z,10.00
2018-11-07T22:18:29.537Z,9.90
2018-11-07T22:20:58.477Z,9.90
2018-11-07T22:23:27.280Z,9.90
2018-11-07T22:25:56.153Z,9.90
2018-11-07T22:28:24.584Z,9.90
2018-11-07T22:30:53.174Z,9.90
2018-11-07T22:33:21.484Z,9.90
2018-11-07T22:35:50.073Z,10.00
2018-11-07T22:38:18.495Z,9.90
2018-11-07T22:40:47.417Z,10.00
2018-11-07T22:43:16.177Z,10.00
2018-11-07T22:45:44.582Z,10.00
2018-11-07T22:48:13.415Z,10.00
2018-11-07T22:50:41.694Z,10.00
2018-11-07T22:53:10.087Z,10.00
2018-11-07T22:55:38.419Z,10.00
2018-11-07T22:58:06.827Z,10.10
2018-11-07T23:00:40.531Z,10.10
2018-11-07T23:03:08.980Z,10.10
2018-11-07T23:05:37.314Z,10.10
2018-11-07T23:08:05.631Z,10.00
2018-11-07T23:10:34.023Z,10.00
2018-11-07T23:13:02.314Z,10.00
2018-11-07T23:15:36.097Z,10.00
2018-11-07T23:18:04.891Z,9.90
2018-11-07T23:20:33.179Z,9.90
2018-11-07T23:23:01.546Z,9.90
2018-11-07T23:25:29.830Z,9.90
2018-11-07T23:27:58.182Z,9.90
2018-11-07T23:30:26.528Z,9.90
2018-11-07T23:32:54.818Z,9.90
2018-11-07T23:35:23.119Z,9.90
2018-11-07T23:37:51.377Z,9.90
2018-11-07T23:40:19.698Z,9.90
2018-11-07T23:42:47.967Z,9.90
2018-11-07T23:45:16.271Z,10.00
2018-11-07T23:47:44.625Z,10.00
2018-11-07T23:50:12.922Z,10.00
2018-11-07T23:52:48.256Z,10.00
2018-11-07T23:55:17.767Z,10.00
2018-11-07T23:57:46.141Z,10.00
